X  CloseMetar Aviation Weather Data     KMSL Northwest Alabama Regional

Temperature

36°F Temperature

30°F Dewpoint

81% Humidity



Wind

 3 MPH

 5 KM/H

 1 M/S

 3 KTS



110°
East South
East
Current Conditions

Mostly Cloudy Mostly Cloudy
Pressure 1024.42 (hPa) - 30.25 (in)
Visibility 10 (mi) - 16.1 (km)
Airport
Airport-code KMSL

Location Northwest Alabama Regional 5 (mi)

Metar:
KMSL 230853Z AUTO 11003KT 10SM BKN100 02/M01 A3025 RMK AO2 SLP244 T00221011 56011

Time: 02-23-2020 2:53